sensor_id;sensor_type;location;lat;lon;timestamp;P1;durP1;ratioP1;P2;durP2;ratioP2
15645;SDS011;7922;43.622;1.476;2023-10-19T00:00:50;2.73;;;2.40;;
15645;SDS011;7922;43.622;1.476;2023-10-19T00:03:16;2.67;;;2.00;;
15645;SDS011;7922;43.622;1.476;2023-10-19T00:05:43;2.90;;;2.07;;
15645;SDS011;7922;43.622;1.476;2023-10-19T00:08:09;2.80;;;2.30;;
15645;SDS011;7922;43.622;1.476;2023-10-19T00:10:34;3.93;;;2.27;;
15645;SDS011;7922;43.622;1.476;2023-10-19T00:12:59;4.20;;;2.57;;
15645;SDS011;7922;43.622;1.476;2023-10-19T00:15:25;4.40;;;2.80;;
15645;SDS011;7922;43.622;1.476;2023-10-19T00:17:51;4.23;;;2.63;;
15645;SDS011;7922;43.622;1.476;2023-10-19T00:20:16;3.40;;;2.63;;
15645;SDS011;7922;43.622;1.476;2023-10-19T00:22:42;4.20;;;2.60;;
15645;SDS011;7922;43.622;1.476;2023-10-19T00:25:07;3.97;;;2.80;;
15645;SDS011;7922;43.622;1.476;2023-10-19T00:27:32;5.20;;;3.07;;
15645;SDS011;7922;43.622;1.476;2023-10-19T00:29:58;3.37;;;2.20;;
15645;SDS011;7922;43.622;1.476;2023-10-19T00:32:23;3.10;;;2.27;;
15645;SDS011;7922;43.622;1.476;2023-10-19T00:34:48;3.20;;;2.57;;
15645;SDS011;7922;43.622;1.476;2023-10-19T00:37:13;3.67;;;2.50;;
15645;SDS011;7922;43.622;1.476;2023-10-19T00:39:39;3.23;;;2.93;;
15645;SDS011;7922;43.622;1.476;2023-10-19T00:42:04;4.27;;;2.57;;
15645;SDS011;7922;43.622;1.476;2023-10-19T00:44:29;4.73;;;2.53;;
15645;SDS011;7922;43.622;1.476;2023-10-19T00:46:54;3.10;;;2.60;;
15645;SDS011;7922;43.622;1.476;2023-10-19T00:49:20;5.60;;;2.90;;
15645;SDS011;7922;43.622;1.476;2023-10-19T00:51:46;6.60;;;2.87;;
15645;SDS011;7922;43.622;1.476;2023-10-19T00:54:19;3.97;;;2.73;;
15645;SDS011;7922;43.622;1.476;2023-10-19T00:56:50;4.43;;;3.10;;
15645;SDS011;7922;43.622;1.476;2023-10-19T00:59:16;3.67;;;3.17;;
15645;SDS011;7922;43.622;1.476;2023-10-19T01:01:43;3.97;;;3.03;;
15645;SDS011;7922;43.622;1.476;2023-10-19T01:04:09;3.60;;;3.23;;
15645;SDS011;7922;43.622;1.476;2023-10-19T01:06:37;7.33;;;3.87;;
15645;SDS011;7922;43.622;1.476;2023-10-19T01:09:03;5.03;;;3.20;;
15645;SDS011;7922;43.622;1.476;2023-10-19T01:11:28;4.17;;;3.20;;
15645;SDS011;7922;43.622;1.476;2023-10-19T01:13:53;6.70;;;3.17;;
15645;SDS011;7922;43.622;1.476;2023-10-19T01:16:19;4.23;;;3.60;;
15645;SDS011;7922;43.622;1.476;2023-10-19T01:18:44;5.37;;;3.63;;
15645;SDS011;7922;43.622;1.476;2023-10-19T01:21:10;4.73;;;3.77;;
15645;SDS011;7922;43.622;1.476;2023-10-19T01:23:35;5.73;;;4.00;;
15645;SDS011;7922;43.622;1.476;2023-10-19T01:26:00;4.47;;;3.57;;
15645;SDS011;7922;43.622;1.476;2023-10-19T01:28:27;7.10;;;3.87;;
15645;SDS011;7922;43.622;1.476;2023-10-19T01:30:56;5.07;;;4.00;;
15645;SDS011;7922;43.622;1.476;2023-10-19T01:33:21;5.67;;;3.23;;
15645;SDS011;7922;43.622;1.476;2023-10-19T01:35:47;5.60;;;3.70;;
15645;SDS011;7922;43.622;1.476;2023-10-19T01:38:12;5.17;;;3.40;;
15645;SDS011;7922;43.622;1.476;2023-10-19T01:40:38;5.33;;;3.43;;
15645;SDS011;7922;43.622;1.476;2023-10-19T01:43:03;6.90;;;3.73;;
15645;SDS011;7922;43.622;1.476;2023-10-19T01:45:28;7.43;;;3.73;;
15645;SDS011;7922;43.622;1.476;2023-10-19T01:47:54;5.63;;;3.43;;
15645;SDS011;7922;43.622;1.476;2023-10-19T01:50:19;3.90;;;3.47;;
15645;SDS011;7922;43.622;1.476;2023-10-19T01:52:44;6.07;;;2.93;;
15645;SDS011;7922;43.622;1.476;2023-10-19T01:55:10;7.03;;;3.17;;
15645;SDS011;7922;43.622;1.476;2023-10-19T01:57:35;5.47;;;3.43;;
15645;SDS011;7922;43.622;1.476;2023-10-19T02:00:00;8.30;;;3.53;;
15645;SDS011;7922;43.622;1.476;2023-10-19T02:02:25;7.33;;;3.67;;
15645;SDS011;7922;43.622;1.476;2023-10-19T02:04:51;6.33;;;4.10;;
15645;SDS011;7922;43.622;1.476;2023-10-19T02:07:16;4.47;;;3.87;;
15645;SDS011;7922;43.622;1.476;2023-10-19T02:09:41;6.37;;;3.50;;
15645;SDS011;7922;43.622;1.476;2023-10-19T02:12:07;6.33;;;4.70;;
15645;SDS011;7922;43.622;1.476;2023-10-19T02:14:32;8.00;;;4.50;;
15645;SDS011;7922;43.622;1.476;2023-10-19T02:17:00;8.13;;;4.13;;
15645;SDS011;7922;43.622;1.476;2023-10-19T02:19:26;4.97;;;3.83;;
15645;SDS011;7922;43.622;1.476;2023-10-19T02:21:56;8.40;;;4.10;;
15645;SDS011;7922;43.622;1.476;2023-10-19T02:24:23;7.77;;;4.30;;
15645;SDS011;7922;43.622;1.476;2023-10-19T02:26:52;8.53;;;3.63;;
15645;SDS011;7922;43.622;1.476;2023-10-19T02:29:19;7.00;;;4.63;;
15645;SDS011;7922;43.622;1.476;2023-10-19T02:31:44;8.57;;;4.30;;
15645;SDS011;7922;43.622;1.476;2023-10-19T02:34:10;8.83;;;5.20;;
15645;SDS011;7922;43.622;1.476;2023-10-19T02:36:37;7.43;;;4.53;;
15645;SDS011;7922;43.622;1.476;2023-10-19T02:39:04;15.50;;;5.10;;
15645;SDS011;7922;43.622;1.476;2023-10-19T02:41:31;10.33;;;4.63;;
15645;SDS011;7922;43.622;1.476;2023-10-19T02:43:57;13.07;;;5.60;;
15645;SDS011;7922;43.622;1.476;2023-10-19T02:46:22;14.33;;;5.23;;
15645;SDS011;7922;43.622;1.476;2023-10-19T02:48:47;12.70;;;5.13;;
15645;SDS011;7922;43.622;1.476;2023-10-19T02:51:13;12.57;;;4.83;;
15645;SDS011;7922;43.622;1.476;2023-10-19T02:53:41;15.30;;;5.30;;
15645;SDS011;7922;43.622;1.476;2023-10-19T02:56:13;14.73;;;5.03;;
15645;SDS011;7922;43.622;1.476;2023-10-19T02:58:40;14.23;;;4.93;;
15645;SDS011;7922;43.622;1.476;2023-10-19T03:01:11;14.83;;;5.63;;
15645;SDS011;7922;43.622;1.476;2023-10-19T03:03:37;14.57;;;5.07;;
15645;SDS011;7922;43.622;1.476;2023-10-19T03:06:02;12.73;;;5.10;;
15645;SDS011;7922;43.622;1.476;2023-10-19T03:08:28;11.10;;;4.53;;
15645;SDS011;7922;43.622;1.476;2023-10-19T03:10:53;9.80;;;4.40;;
15645;SDS011;7922;43.622;1.476;2023-10-19T03:13:18;15.40;;;5.10;;
15645;SDS011;7922;43.622;1.476;2023-10-19T03:15:44;14.33;;;5.10;;
15645;SDS011;7922;43.622;1.476;2023-10-19T03:18:09;17.43;;;4.83;;
15645;SDS011;7922;43.622;1.476;2023-10-19T03:20:37;10.47;;;4.33;;
15645;SDS011;7922;43.622;1.476;2023-10-19T03:23:02;10.67;;;4.53;;
15645;SDS011;7922;43.622;1.476;2023-10-19T03:25:28;11.30;;;3.80;;
15645;SDS011;7922;43.622;1.476;2023-10-19T03:27:54;15.63;;;4.33;;
15645;SDS011;7922;43.622;1.476;2023-10-19T03:30:19;12.43;;;4.00;;
15645;SDS011;7922;43.622;1.476;2023-10-19T03:32:44;9.90;;;4.20;;
15645;SDS011;7922;43.622;1.476;2023-10-19T03:35:09;10.83;;;3.70;;
15645;SDS011;7922;43.622;1.476;2023-10-19T03:37:35;15.63;;;3.93;;
15645;SDS011;7922;43.622;1.476;2023-10-19T03:40:00;8.90;;;3.90;;
15645;SDS011;7922;43.622;1.476;2023-10-19T03:42:26;10.83;;;3.77;;
15645;SDS011;7922;43.622;1.476;2023-10-19T03:44:51;18.07;;;4.47;;
15645;SDS011;7922;43.622;1.476;2023-10-19T03:47:16;8.70;;;4.00;;
15645;SDS011;7922;43.622;1.476;2023-10-19T03:49:42;8.17;;;3.70;;
15645;SDS011;7922;43.622;1.476;2023-10-19T03:52:07;12.30;;;4.17;;
15645;SDS011;7922;43.622;1.476;2023-10-19T03:54:33;9.60;;;3.80;;
15645;SDS011;7922;43.622;1.476;2023-10-19T03:56:59;10.03;;;3.57;;
15645;SDS011;7922;43.622;1.476;2023-10-19T03:59:24;7.60;;;2.97;;
15645;SDS011;7922;43.622;1.476;2023-10-19T04:01:50;9.50;;;3.57;;
15645;SDS011;7922;43.622;1.476;2023-10-19T04:04:15;8.27;;;3.43;;
15645;SDS011;7922;43.622;1.476;2023-10-19T04:06:40;11.07;;;3.80;;
15645;SDS011;7922;43.622;1.476;2023-10-19T04:09:05;7.80;;;3.20;;
15645;SDS011;7922;43.622;1.476;2023-10-19T04:11:31;8.10;;;3.57;;
15645;SDS011;7922;43.622;1.476;2023-10-19T04:13:58;6.70;;;3.20;;
15645;SDS011;7922;43.622;1.476;2023-10-19T04:16:26;9.07;;;3.17;;
15645;SDS011;7922;43.622;1.476;2023-10-19T04:18:51;8.87;;;3.73;;
15645;SDS011;7922;43.622;1.476;2023-10-19T04:21:16;9.33;;;3.50;;
15645;SDS011;7922;43.622;1.476;2023-10-19T04:23:42;10.20;;;3.47;;
15645;SDS011;7922;43.622;1.476;2023-10-19T04:26:07;10.20;;;3.63;;
15645;SDS011;7922;43.622;1.476;2023-10-19T04:28:32;8.60;;;3.63;;
15645;SDS011;7922;43.622;1.476;2023-10-19T04:30:58;10.00;;;3.50;;
15645;SDS011;7922;43.622;1.476;2023-10-19T04:33:23;8.17;;;3.97;;
15645;SDS011;7922;43.622;1.476;2023-10-19T04:35:48;8.87;;;3.40;;
15645;SDS011;7922;43.622;1.476;2023-10-19T04:38:14;10.43;;;3.50;;
15645;SDS011;7922;43.622;1.476;2023-10-19T04:40:39;12.23;;;3.77;;
15645;SDS011;7922;43.622;1.476;2023-10-19T04:43:04;8.50;;;3.47;;
15645;SDS011;7922;43.622;1.476;2023-10-19T04:45:29;5.80;;;2.70;;
15645;SDS011;7922;43.622;1.476;2023-10-19T04:47:55;8.57;;;3.40;;
15645;SDS011;7922;43.622;1.476;2023-10-19T04:50:20;8.57;;;3.17;;
15645;SDS011;7922;43.622;1.476;2023-10-19T04:52:46;7.67;;;3.17;;
15645;SDS011;7922;43.622;1.476;2023-10-19T04:55:11;11.27;;;3.20;;
15645;SDS011;7922;43.622;1.476;2023-10-19T04:57:36;8.50;;;2.97;;
15645;SDS011;7922;43.622;1.476;2023-10-19T05:00:02;9.60;;;2.77;;
15645;SDS011;7922;43.622;1.476;2023-10-19T05:02:27;8.40;;;2.90;;
15645;SDS011;7922;43.622;1.476;2023-10-19T05:04:52;9.50;;;3.00;;
15645;SDS011;7922;43.622;1.476;2023-10-19T05:07:18;9.30;;;2.87;;
15645;SDS011;7922;43.622;1.476;2023-10-19T05:09:44;7.00;;;2.60;;
15645;SDS011;7922;43.622;1.476;2023-10-19T05:12:10;7.50;;;2.50;;
15645;SDS011;7922;43.622;1.476;2023-10-19T05:14:35;9.73;;;3.03;;
15645;SDS011;7922;43.622;1.476;2023-10-19T05:17:01;7.67;;;2.60;;
15645;SDS011;7922;43.622;1.476;2023-10-19T05:19:27;6.10;;;2.80;;
15645;SDS011;7922;43.622;1.476;2023-10-19T05:21:52;7.47;;;2.90;;
15645;SDS011;7922;43.622;1.476;2023-10-19T05:24:17;6.53;;;2.50;;
15645;SDS011;7922;43.622;1.476;2023-10-19T05:26:43;7.83;;;3.40;;
15645;SDS011;7922;43.622;1.476;2023-10-19T05:29:08;7.43;;;2.80;;
15645;SDS011;7922;43.622;1.476;2023-10-19T05:31:33;8.30;;;2.30;;
15645;SDS011;7922;43.622;1.476;2023-10-19T05:33:58;7.87;;;2.43;;
15645;SDS011;7922;43.622;1.476;2023-10-19T05:36:24;5.07;;;2.13;;
15645;SDS011;7922;43.622;1.476;2023-10-19T05:38:49;6.03;;;1.93;;
15645;SDS011;7922;43.622;1.476;2023-10-19T05:41:14;6.00;;;2.27;;
15645;SDS011;7922;43.622;1.476;2023-10-19T05:43:39;4.73;;;2.27;;
15645;SDS011;7922;43.622;1.476;2023-10-19T05:46:05;6.23;;;2.00;;
15645;SDS011;7922;43.622;1.476;2023-10-19T05:48:30;3.57;;;1.80;;
15645;SDS011;7922;43.622;1.476;2023-10-19T05:50:56;6.93;;;2.00;;
15645;SDS011;7922;43.622;1.476;2023-10-19T05:53:21;4.40;;;2.07;;
15645;SDS011;7922;43.622;1.476;2023-10-19T05:55:46;5.57;;;2.10;;
15645;SDS011;7922;43.622;1.476;2023-10-19T05:58:12;5.57;;;2.17;;
15645;SDS011;7922;43.622;1.476;2023-10-19T06:00:37;5.83;;;2.27;;
15645;SDS011;7922;43.622;1.476;2023-10-19T06:03:02;7.60;;;2.33;;
15645;SDS011;7922;43.622;1.476;2023-10-19T06:05:28;5.10;;;2.27;;
15645;SDS011;7922;43.622;1.476;2023-10-19T06:07:53;6.27;;;2.20;;
15645;SDS011;7922;43.622;1.476;2023-10-19T06:10:19;5.83;;;2.63;;
15645;SDS011;7922;43.622;1.476;2023-10-19T06:12:46;6.37;;;2.37;;
15645;SDS011;7922;43.622;1.476;2023-10-19T06:15:13;7.63;;;2.80;;
15645;SDS011;7922;43.622;1.476;2023-10-19T06:17:40;4.67;;;2.30;;
15645;SDS011;7922;43.622;1.476;2023-10-19T06:20:07;8.07;;;3.00;;
15645;SDS011;7922;43.622;1.476;2023-10-19T06:22:36;6.47;;;2.50;;
15645;SDS011;7922;43.622;1.476;2023-10-19T06:25:02;6.13;;;2.80;;
15645;SDS011;7922;43.622;1.476;2023-10-19T06:27:28;10.70;;;2.80;;
15645;SDS011;7922;43.622;1.476;2023-10-19T06:29:53;7.50;;;3.00;;
15645;SDS011;7922;43.622;1.476;2023-10-19T06:32:18;6.03;;;3.00;;
15645;SDS011;7922;43.622;1.476;2023-10-19T06:34:44;11.83;;;3.40;;
15645;SDS011;7922;43.622;1.476;2023-10-19T06:37:09;6.87;;;2.97;;
15645;SDS011;7922;43.622;1.476;2023-10-19T06:39:34;6.80;;;3.43;;
15645;SDS011;7922;43.622;1.476;2023-10-19T06:41:59;11.17;;;3.67;;
15645;SDS011;7922;43.622;1.476;2023-10-19T06:44:25;6.50;;;3.20;;
15645;SDS011;7922;43.622;1.476;2023-10-19T06:46:50;9.03;;;3.33;;
15645;SDS011;7922;43.622;1.476;2023-10-19T06:49:15;7.60;;;3.30;;
15645;SDS011;7922;43.622;1.476;2023-10-19T06:51:40;7.30;;;3.13;;
15645;SDS011;7922;43.622;1.476;2023-10-19T06:54:06;7.00;;;3.17;;
15645;SDS011;7922;43.622;1.476;2023-10-19T06:56:31;6.03;;;2.70;;
15645;SDS011;7922;43.622;1.476;2023-10-19T06:58:56;4.87;;;3.20;;
15645;SDS011;7922;43.622;1.476;2023-10-19T07:01:22;8.83;;;2.90;;
15645;SDS011;7922;43.622;1.476;2023-10-19T07:03:47;8.70;;;3.00;;
15645;SDS011;7922;43.622;1.476;2023-10-19T07:06:12;10.00;;;3.00;;
15645;SDS011;7922;43.622;1.476;2023-10-19T07:08:37;7.23;;;2.70;;
15645;SDS011;7922;43.622;1.476;2023-10-19T07:11:03;8.07;;;2.97;;
15645;SDS011;7922;43.622;1.476;2023-10-19T07:13:28;6.27;;;2.90;;
15645;SDS011;7922;43.622;1.476;2023-10-19T07:15:53;5.97;;;3.10;;
15645;SDS011;7922;43.622;1.476;2023-10-19T07:18:18;7.93;;;2.57;;
15645;SDS011;7922;43.622;1.476;2023-10-19T07:20:44;7.43;;;3.03;;
15645;SDS011;7922;43.622;1.476;2023-10-19T07:23:12;3.93;;;2.73;;
15645;SDS011;7922;43.622;1.476;2023-10-19T07:25:37;5.87;;;2.80;;
15645;SDS011;7922;43.622;1.476;2023-10-19T07:28:02;8.23;;;3.17;;
15645;SDS011;7922;43.622;1.476;2023-10-19T07:30:28;5.77;;;2.87;;
15645;SDS011;7922;43.622;1.476;2023-10-19T07:32:53;7.83;;;2.77;;
15645;SDS011;7922;43.622;1.476;2023-10-19T07:35:18;7.33;;;2.83;;
15645;SDS011;7922;43.622;1.476;2023-10-19T07:37:44;8.20;;;2.87;;
15645;SDS011;7922;43.622;1.476;2023-10-19T07:40:09;5.87;;;2.60;;
15645;SDS011;7922;43.622;1.476;2023-10-19T07:42:35;4.80;;;2.53;;
15645;SDS011;7922;43.622;1.476;2023-10-19T07:45:00;7.77;;;2.63;;
15645;SDS011;7922;43.622;1.476;2023-10-19T07:47:26;9.93;;;2.80;;
15645;SDS011;7922;43.622;1.476;2023-10-19T07:49:51;6.03;;;2.40;;
15645;SDS011;7922;43.622;1.476;2023-10-19T07:52:16;7.97;;;2.57;;
15645;SDS011;7922;43.622;1.476;2023-10-19T07:54:42;5.23;;;2.40;;
15645;SDS011;7922;43.622;1.476;2023-10-19T07:57:07;7.33;;;3.07;;
15645;SDS011;7922;43.622;1.476;2023-10-19T07:59:32;6.43;;;2.70;;
15645;SDS011;7922;43.622;1.476;2023-10-19T08:01:58;7.53;;;2.47;;
15645;SDS011;7922;43.622;1.476;2023-10-19T08:04:24;6.83;;;2.50;;
15645;SDS011;7922;43.622;1.476;2023-10-19T08:06:49;6.97;;;2.73;;
15645;SDS011;7922;43.622;1.476;2023-10-19T08:09:14;7.30;;;3.10;;
15645;SDS011;7922;43.622;1.476;2023-10-19T08:11:39;8.93;;;2.43;;
15645;SDS011;7922;43.622;1.476;2023-10-19T08:14:05;8.80;;;2.33;;
15645;SDS011;7922;43.622;1.476;2023-10-19T08:16:30;7.77;;;2.90;;
15645;SDS011;7922;43.622;1.476;2023-10-19T08:18:56;5.03;;;2.50;;
15645;SDS011;7922;43.622;1.476;2023-10-19T08:21:22;9.23;;;3.08;;
15645;SDS011;7922;43.622;1.476;2023-10-19T08:23:48;5.53;;;2.57;;
15645;SDS011;7922;43.622;1.476;2023-10-19T08:26:13;6.87;;;2.40;;
15645;SDS011;7922;43.622;1.476;2023-10-19T08:28:38;5.67;;;2.20;;
15645;SDS011;7922;43.622;1.476;2023-10-19T08:31:03;7.40;;;2.20;;
15645;SDS011;7922;43.622;1.476;2023-10-19T08:33:33;4.97;;;2.57;;
15645;SDS011;7922;43.622;1.476;2023-10-19T08:35:58;5.10;;;2.50;;
15645;SDS011;7922;43.622;1.476;2023-10-19T08:38:23;4.93;;;2.50;;
15645;SDS011;7922;43.622;1.476;2023-10-19T08:40:49;5.53;;;2.70;;
15645;SDS011;7922;43.622;1.476;2023-10-19T08:43:15;6.13;;;2.80;;
15645;SDS011;7922;43.622;1.476;2023-10-19T08:45:40;5.23;;;2.47;;
15645;SDS011;7922;43.622;1.476;2023-10-19T08:48:06;4.70;;;2.30;;
15645;SDS011;7922;43.622;1.476;2023-10-19T08:50:32;6.80;;;2.47;;
15645;SDS011;7922;43.622;1.476;2023-10-19T08:52:59;6.63;;;2.70;;
15645;SDS011;7922;43.622;1.476;2023-10-19T08:55:26;6.60;;;2.80;;
15645;SDS011;7922;43.622;1.476;2023-10-19T08:57:51;6.47;;;2.53;;
15645;SDS011;7922;43.622;1.476;2023-10-19T09:00:18;6.53;;;2.97;;
15645;SDS011;7922;43.622;1.476;2023-10-19T09:02:44;8.37;;;3.30;;
15645;SDS011;7922;43.622;1.476;2023-10-19T09:05:10;4.80;;;2.50;;
15645;SDS011;7922;43.622;1.476;2023-10-19T09:07:36;6.03;;;3.50;;
15645;SDS011;7922;43.622;1.476;2023-10-19T09:10:01;6.53;;;2.97;;
15645;SDS011;7922;43.622;1.476;2023-10-19T09:12:27;7.87;;;2.93;;
15645;SDS011;7922;43.622;1.476;2023-10-19T09:14:52;8.23;;;3.20;;
15645;SDS011;7922;43.622;1.476;2023-10-19T09:17:27;9.40;;;3.33;;
15645;SDS011;7922;43.622;1.476;2023-10-19T09:19:53;6.37;;;2.93;;
15645;SDS011;7922;43.622;1.476;2023-10-19T09:22:18;12.47;;;3.60;;
15645;SDS011;7922;43.622;1.476;2023-10-19T09:24:47;7.77;;;3.10;;
15645;SDS011;7922;43.622;1.476;2023-10-19T09:27:16;6.00;;;2.97;;
15645;SDS011;7922;43.622;1.476;2023-10-19T09:29:42;7.10;;;2.90;;
15645;SDS011;7922;43.622;1.476;2023-10-19T09:32:07;7.57;;;2.90;;
15645;SDS011;7922;43.622;1.476;2023-10-19T09:34:32;9.90;;;3.40;;
15645;SDS011;7922;43.622;1.476;2023-10-19T09:36:59;7.00;;;3.30;;
15645;SDS011;7922;43.622;1.476;2023-10-19T09:39:25;5.97;;;3.17;;
15645;SDS011;7922;43.622;1.476;2023-10-19T09:41:50;7.87;;;2.93;;
15645;SDS011;7922;43.622;1.476;2023-10-19T09:44:17;8.93;;;3.33;;
15645;SDS011;7922;43.622;1.476;2023-10-19T09:46:46;9.90;;;3.63;;
15645;SDS011;7922;43.622;1.476;2023-10-19T09:49:14;8.07;;;3.00;;
15645;SDS011;7922;43.622;1.476;2023-10-19T09:51:39;6.23;;;2.93;;
15645;SDS011;7922;43.622;1.476;2023-10-19T09:56:51;7.10;;;3.40;;
15645;SDS011;7922;43.622;1.476;2023-10-19T09:59:32;7.90;;;3.23;;
15645;SDS011;7922;43.622;1.476;2023-10-19T10:04:37;8.60;;;3.20;;
15645;SDS011;7922;43.622;1.476;2023-10-19T10:07:06;10.13;;;3.40;;
15645;SDS011;7922;43.622;1.476;2023-10-19T10:09:36;12.07;;;3.50;;
15645;SDS011;7922;43.622;1.476;2023-10-19T10:12:17;8.60;;;3.33;;
15645;SDS011;7922;43.622;1.476;2023-10-19T10:14:56;8.40;;;3.53;;
15645;SDS011;7922;43.622;1.476;2023-10-19T10:17:23;7.20;;;3.33;;
15645;SDS011;7922;43.622;1.476;2023-10-19T10:19:49;9.80;;;3.07;;
15645;SDS011;7922;43.622;1.476;2023-10-19T10:22:15;7.63;;;3.63;;
15645;SDS011;7922;43.622;1.476;2023-10-19T10:24:40;9.33;;;3.90;;
15645;SDS011;7922;43.622;1.476;2023-10-19T10:27:07;5.77;;;3.20;;
15645;SDS011;7922;43.622;1.476;2023-10-19T10:29:32;9.63;;;3.40;;
15645;SDS011;7922;43.622;1.476;2023-10-19T10:31:58;8.50;;;4.10;;
15645;SDS011;7922;43.622;1.476;2023-10-19T10:34:44;10.13;;;3.70;;
15645;SDS011;7922;43.622;1.476;2023-10-19T10:37:12;10.17;;;3.70;;
15645;SDS011;7922;43.622;1.476;2023-10-19T10:39:38;7.40;;;3.10;;
15645;SDS011;7922;43.622;1.476;2023-10-19T10:42:05;7.10;;;3.33;;
15645;SDS011;7922;43.622;1.476;2023-10-19T10:44:35;7.23;;;3.47;;
15645;SDS011;7922;43.622;1.476;2023-10-19T10:47:08;5.10;;;3.30;;
15645;SDS011;7922;43.622;1.476;2023-10-19T10:52:12;6.43;;;3.50;;
15645;SDS011;7922;43.622;1.476;2023-10-19T10:54:37;6.57;;;3.30;;
15645;SDS011;7922;43.622;1.476;2023-10-19T10:57:03;5.27;;;3.40;;
15645;SDS011;7922;43.622;1.476;2023-10-19T10:59:28;5.10;;;3.53;;
15645;SDS011;7922;43.622;1.476;2023-10-19T11:01:54;11.50;;;3.63;;
15645;SDS011;7922;43.622;1.476;2023-10-19T11:04:19;6.23;;;3.13;;
15645;SDS011;7922;43.622;1.476;2023-10-19T11:06:51;7.63;;;3.13;;
15645;SDS011;7922;43.622;1.476;2023-10-19T11:09:17;6.33;;;3.13;;
15645;SDS011;7922;43.622;1.476;2023-10-19T11:11:44;6.63;;;3.00;;
15645;SDS011;7922;43.622;1.476;2023-10-19T11:14:10;9.37;;;3.07;;
15645;SDS011;7922;43.622;1.476;2023-10-19T11:16:36;6.77;;;2.93;;
15645;SDS011;7922;43.622;1.476;2023-10-19T11:19:02;7.77;;;3.27;;
15645;SDS011;7922;43.622;1.476;2023-10-19T11:21:27;6.40;;;2.60;;
15645;SDS011;7922;43.622;1.476;2023-10-19T11:23:52;5.33;;;3.17;;
15645;SDS011;7922;43.622;1.476;2023-10-19T11:26:21;6.57;;;3.37;;
15645;SDS011;7922;43.622;1.476;2023-10-19T11:28:47;9.13;;;3.43;;
15645;SDS011;7922;43.622;1.476;2023-10-19T11:31:22;6.10;;;3.03;;
15645;SDS011;7922;43.622;1.476;2023-10-19T11:33:48;10.63;;;3.87;;
15645;SDS011;7922;43.622;1.476;2023-10-19T11:36:17;8.10;;;3.60;;
15645;SDS011;7922;43.622;1.476;2023-10-19T11:38:44;8.17;;;3.50;;
15645;SDS011;7922;43.622;1.476;2023-10-19T11:41:11;6.03;;;3.30;;
15645;SDS011;7922;43.622;1.476;2023-10-19T11:43:38;8.23;;;3.70;;
15645;SDS011;7922;43.622;1.476;2023-10-19T11:46:04;8.43;;;3.20;;
15645;SDS011;7922;43.622;1.476;2023-10-19T11:48:30;8.47;;;3.30;;
15645;SDS011;7922;43.622;1.476;2023-10-19T11:50:56;6.40;;;3.40;;
15645;SDS011;7922;43.622;1.476;2023-10-19T11:53:22;11.17;;;3.13;;
15645;SDS011;7922;43.622;1.476;2023-10-19T11:55:47;3.73;;;2.87;;
15645;SDS011;7922;43.622;1.476;2023-10-19T11:58:12;4.97;;;3.23;;
15645;SDS011;7922;43.622;1.476;2023-10-19T12:00:38;6.27;;;3.57;;
15645;SDS011;7922;43.622;1.476;2023-10-19T12:03:03;6.67;;;3.60;;
15645;SDS011;7922;43.622;1.476;2023-10-19T12:05:29;8.13;;;3.40;;
15645;SDS011;7922;43.622;1.476;2023-10-19T12:07:54;6.80;;;3.23;;
15645;SDS011;7922;43.622;1.476;2023-10-19T12:10:20;7.40;;;3.47;;
15645;SDS011;7922;43.622;1.476;2023-10-19T12:12:45;5.93;;;3.07;;
15645;SDS011;7922;43.622;1.476;2023-10-19T12:15:10;5.37;;;2.77;;
15645;SDS011;7922;43.622;1.476;2023-10-19T12:17:35;5.57;;;3.23;;
15645;SDS011;7922;43.622;1.476;2023-10-19T12:20:01;7.50;;;3.10;;
15645;SDS011;7922;43.622;1.476;2023-10-19T12:22:26;5.67;;;3.17;;
15645;SDS011;7922;43.622;1.476;2023-10-19T12:24:51;5.43;;;2.80;;
15645;SDS011;7922;43.622;1.476;2023-10-19T12:27:17;6.63;;;3.20;;
15645;SDS011;7922;43.622;1.476;2023-10-19T12:29:42;6.30;;;3.17;;
15645;SDS011;7922;43.622;1.476;2023-10-19T12:32:07;5.70;;;2.90;;
15645;SDS011;7922;43.622;1.476;2023-10-19T12:34:32;6.53;;;3.00;;
15645;SDS011;7922;43.622;1.476;2023-10-19T12:36:58;5.30;;;2.70;;
15645;SDS011;7922;43.622;1.476;2023-10-19T12:39:23;8.00;;;3.00;;
15645;SDS011;7922;43.622;1.476;2023-10-19T12:41:48;4.13;;;2.90;;
15645;SDS011;7922;43.622;1.476;2023-10-19T12:44:14;5.30;;;2.60;;
15645;SDS011;7922;43.622;1.476;2023-10-19T12:46:39;4.23;;;3.10;;
15645;SDS011;7922;43.622;1.476;2023-10-19T12:49:04;5.50;;;2.80;;
15645;SDS011;7922;43.622;1.476;2023-10-19T12:51:30;7.13;;;2.83;;
15645;SDS011;7922;43.622;1.476;2023-10-19T12:53:55;8.63;;;2.53;;
15645;SDS011;7922;43.622;1.476;2023-10-19T12:56:20;6.63;;;2.60;;
15645;SDS011;7922;43.622;1.476;2023-10-19T12:58:46;7.63;;;2.63;;
15645;SDS011;7922;43.622;1.476;2023-10-19T13:01:11;6.97;;;3.03;;
15645;SDS011;7922;43.622;1.476;2023-10-19T13:03:37;4.77;;;2.53;;
15645;SDS011;7922;43.622;1.476;2023-10-19T13:06:02;5.07;;;2.40;;
15645;SDS011;7922;43.622;1.476;2023-10-19T13:08:27;5.57;;;2.90;;
15645;SDS011;7922;43.622;1.476;2023-10-19T13:10:53;4.13;;;2.57;;
15645;SDS011;7922;43.622;1.476;2023-10-19T13:13:18;6.73;;;2.53;;
15645;SDS011;7922;43.622;1.476;2023-10-19T13:15:44;6.87;;;2.57;;
15645;SDS011;7922;43.622;1.476;2023-10-19T13:18:11;8.30;;;3.07;;
15645;SDS011;7922;43.622;1.476;2023-10-19T13:20:37;6.73;;;2.90;;
15645;SDS011;7922;43.622;1.476;2023-10-19T13:23:03;5.93;;;2.90;;
15645;SDS011;7922;43.622;1.476;2023-10-19T13:25:30;6.47;;;2.90;;
15645;SDS011;7922;43.622;1.476;2023-10-19T13:27:56;6.93;;;3.17;;
15645;SDS011;7922;43.622;1.476;2023-10-19T13:30:21;7.63;;;3.00;;
15645;SDS011;7922;43.622;1.476;2023-10-19T13:32:46;7.43;;;3.40;;
15645;SDS011;7922;43.622;1.476;2023-10-19T13:35:12;6.03;;;2.80;;
15645;SDS011;7922;43.622;1.476;2023-10-19T13:37:37;8.63;;;3.20;;
15645;SDS011;7922;43.622;1.476;2023-10-19T13:40:03;8.00;;;3.47;;
15645;SDS011;7922;43.622;1.476;2023-10-19T13:42:29;7.93;;;3.27;;
15645;SDS011;7922;43.622;1.476;2023-10-19T13:44:54;7.97;;;3.30;;
15645;SDS011;7922;43.622;1.476;2023-10-19T13:47:19;4.20;;;3.13;;
15645;SDS011;7922;43.622;1.476;2023-10-19T13:49:45;6.43;;;3.23;;
15645;SDS011;7922;43.622;1.476;2023-10-19T13:52:10;9.50;;;3.43;;
15645;SDS011;7922;43.622;1.476;2023-10-19T13:54:35;7.77;;;3.40;;
15645;SDS011;7922;43.622;1.476;2023-10-19T13:57:02;6.93;;;3.30;;
15645;SDS011;7922;43.622;1.476;2023-10-19T13:59:28;6.10;;;3.33;;
15645;SDS011;7922;43.622;1.476;2023-10-19T14:01:53;6.03;;;2.93;;
15645;SDS011;7922;43.622;1.476;2023-10-19T14:04:19;8.23;;;3.00;;
15645;SDS011;7922;43.622;1.476;2023-10-19T14:06:44;6.87;;;3.53;;
15645;SDS011;7922;43.622;1.476;2023-10-19T14:09:09;7.00;;;3.33;;
15645;SDS011;7922;43.622;1.476;2023-10-19T14:11:34;7.97;;;3.10;;
15645;SDS011;7922;43.622;1.476;2023-10-19T14:14:00;7.30;;;3.03;;
15645;SDS011;7922;43.622;1.476;2023-10-19T14:16:25;7.80;;;3.43;;
15645;SDS011;7922;43.622;1.476;2023-10-19T14:18:50;7.90;;;3.20;;
15645;SDS011;7922;43.622;1.476;2023-10-19T14:21:16;7.60;;;3.40;;
15645;SDS011;7922;43.622;1.476;2023-10-19T14:23:43;9.07;;;3.63;;
15645;SDS011;7922;43.622;1.476;2023-10-19T14:26:09;7.67;;;3.17;;
15645;SDS011;7922;43.622;1.476;2023-10-19T14:28:34;6.90;;;3.40;;
15645;SDS011;7922;43.622;1.476;2023-10-19T14:31:00;9.33;;;3.37;;
15645;SDS011;7922;43.622;1.476;2023-10-19T14:33:25;5.20;;;3.20;;
15645;SDS011;7922;43.622;1.476;2023-10-19T14:35:50;6.73;;;3.50;;
15645;SDS011;7922;43.622;1.476;2023-10-19T14:38:15;4.50;;;2.97;;
15645;SDS011;7922;43.622;1.476;2023-10-19T14:40:41;8.37;;;3.57;;
15645;SDS011;7922;43.622;1.476;2023-10-19T14:43:06;5.80;;;3.70;;
15645;SDS011;7922;43.622;1.476;2023-10-19T14:45:32;5.57;;;3.30;;
15645;SDS011;7922;43.622;1.476;2023-10-19T14:47:58;6.43;;;3.00;;
15645;SDS011;7922;43.622;1.476;2023-10-19T14:50:23;7.00;;;2.90;;
15645;SDS011;7922;43.622;1.476;2023-10-19T14:52:52;8.30;;;3.70;;
15645;SDS011;7922;43.622;1.476;2023-10-19T14:55:18;7.37;;;3.37;;
15645;SDS011;7922;43.622;1.476;2023-10-19T14:57:45;5.80;;;3.10;;
15645;SDS011;7922;43.622;1.476;2023-10-19T15:00:13;7.80;;;3.23;;